Time;durP1;ratioP1;P1;durP2;ratioP2;P2;SDS_P1;SDS_P2;PMS_P1;PMS_P2;Temp;Humidity;BMP_temperature;BMP_pressure;BME280_temperature;BME280_humidity;BME280_pressure;Samples;Min_cycle;Max_cycle;Signal;HPM_P1;HPM_P2
2022/02/15 00:00:59;;;;;;;;;;;282.00;1459.20;;;;;;5097513;28;20419;-61
2022/02/15 00:03:28;;;;;;;;;;;282.00;1459.20;;;;;;5097372;28;19904;-61
2022/02/15 00:05:57;;;;;;;;;;;282.00;1459.20;;;;;;5097024;28;19908;-61
2022/02/15 00:08:25;;;;;;;;;;;282.00;1484.80;;;;;;5097189;28;19911;-63
2022/02/15 00:10:54;;;;;;;;;;;282.10;1459.20;;;;;;5097177;28;19911;-62
2022/02/15 00:13:25;;;;;;;;;;;282.00;1484.80;;;;;;5097423;28;19933;-62
2022/02/15 00:15:53;;;;;;;;;;;281.90;1510.40;;;;;;5097202;28;20304;-62
2022/02/15 00:18:20;;;;;;;;;;;282.00;1510.40;;;;;;5097078;28;20371;-62
2022/02/15 00:20:49;;;;;;;;;;;282.00;1510.40;;;;;;5096783;28;20342;-62
2022/02/15 00:23:17;;;;;;;;;;;282.00;1510.40;;;;;;5096954;28;19908;-69
2022/02/15 00:25:43;;;;;;;;;;;281.90;1510.40;;;;;;5097184;28;19904;-62
2022/02/15 00:28:11;;;;;;;;;;;281.90;1536.00;;;;;;5096897;28;19911;-68
2022/02/15 00:30:40;;;;;;;;;;;281.90;1536.00;;;;;;5096731;28;19911;-70
2022/02/15 00:33:05;;;;;;;;;;;281.90;1536.00;;;;;;5096394;28;19916;-62
2022/02/15 00:35:34;;;;;;;;;;;281.80;1536.00;;;;;;5096589;28;19904;-62
2022/02/15 00:38:01;;;;;;;;;;;281.80;1561.60;;;;;;5096594;28;19957;-62
2022/02/15 00:40:30;;;;;;;;;;;281.70;1587.20;;;;;;5096601;28;19908;-69
2022/02/15 00:42:58;;;;;;;;;;;281.70;1587.20;;;;;;5096981;28;19970;-62
2022/02/15 00:45:26;;;;;;;;;;;281.60;1612.80;;;;;;5096581;28;19915;-69
2022/02/15 00:47:55;;;;;;;;;;;281.60;1612.80;;;;;;5096015;28;19990;-62
2022/02/15 00:50:24;;;;;;;;;;;256.90;1587.20;;;;;;5096368;28;19904;-62
2022/02/15 00:52:52;;;;;;;;;;;256.90;1587.20;;;;;;5096376;28;19919;-69
2022/02/15 00:55:21;;;;;;;;;;;281.60;1612.80;;;;;;5096241;28;19931;-62
2022/02/15 00:57:47;;;;;;;;;;;256.90;1587.20;;;;;;5096274;28;19905;-64
2022/02/15 01:00:15;;;;;;;;;;;256.90;1587.20;;;;;;5096266;28;19911;-69
2022/02/15 01:02:44;;;;;;;;;;;256.80;1612.80;;;;;;5096898;28;19913;-61
2022/02/15 01:05:13;;;;;;;;;;;256.90;1587.20;;;;;;5096143;28;19904;-70
2022/02/15 01:07:41;;;;;;;;;;;256.90;1587.20;;;;;;5096038;28;19904;-63
2022/02/15 01:10:10;;;;;;;;;;;256.90;1561.60;;;;;;5095723;28;19927;-61
2022/02/15 01:12:39;;;;;;;;;;;256.90;1587.20;;;;;;5095997;28;19912;-61
2022/02/15 01:15:07;;;;;;;;;;;256.80;1587.20;;;;;;5095968;28;19912;-69
2022/02/15 01:17:35;;;;;;;;;;;256.90;1561.60;;;;;;5096101;28;19904;-62
2022/02/15 01:20:04;;;;;;;;;;;256.90;1561.60;;;;;;5095945;28;19950;-62
2022/02/15 01:22:30;;;;;;;;;;;281.60;1587.20;;;;;;5095904;28;19904;-65
2022/02/15 01:24:58;;;;;;;;;;;281.60;1587.20;;;;;;5095703;28;20338;-61
2022/02/15 01:27:27;;;;;;;;;;;256.90;1561.60;;;;;;5095736;28;19908;-69
2022/02/15 01:29:52;;;;;;;;;;;256.90;1561.60;;;;;;5095744;28;19904;-61
2022/02/15 01:32:21;;;;;;;;;;;281.60;1587.20;;;;;;5095333;28;20255;-61
2022/02/15 01:34:49;;;;;;;;;;;256.90;1561.60;;;;;;5095349;28;19904;-62
2022/02/15 01:37:15;;;;;;;;;;;281.60;1587.20;;;;;;5095401;28;19935;-63
2022/02/15 01:39:44;;;;;;;;;;;256.90;1561.60;;;;;;5095096;28;19932;-61
2022/02/15 01:42:15;;;;;;;;;;;256.80;1587.20;;;;;;5095370;28;19930;-61
2022/02/15 01:44:44;;;;;;;;;;;256.80;1561.60;;;;;;5095493;28;20014;-61
2022/02/15 01:47:25;;;;;;;;;;;256.80;1561.60;;;;;;5095522;28;19991;-62
2022/02/15 01:49:54;;;;;;;;;;;256.80;1587.20;;;;;;5094998;28;19904;-61
2022/02/15 01:52:23;;;;;;;;;;;256.90;1561.60;;;;;;5095227;28;19912;-64
2022/02/15 01:54:51;;;;;;;;;;;256.80;1587.20;;;;;;5095082;28;19904;-61
2022/02/15 01:57:21;;;;;;;;;;;256.80;1587.20;;;;;;5095036;28;19904;-62
2022/02/15 01:59:53;;;;;;;;;;;256.80;1561.60;;;;;;5094561;28;19904;-62
2022/02/15 02:02:22;;;;;;;;;;;256.80;1587.20;;;;;;5095157;28;20265;-62
2022/02/15 02:07:37;;;;;;;;;;;256.90;1561.60;;;;;;5095346;28;19950;-67
2022/02/15 02:10:06;;;;;;;;;;;256.90;1561.60;;;;;;5095149;28;19956;-62
2022/02/15 02:12:34;;;;;;;;;;;256.90;1561.60;;;;;;5094723;28;19962;-61
2022/02/15 02:15:04;;;;;;;;;;;256.90;1561.60;;;;;;5094777;28;19910;-68
2022/02/15 02:17:30;;;;;;;;;;;256.90;1561.60;;;;;;5094736;28;19939;-61
2022/02/15 02:19:59;;;;;;;;;;;256.90;1561.60;;;;;;5094528;28;20267;-70
2022/02/15 02:22:28;;;;;;;;;;;256.90;1536.00;;;;;;5094608;28;20346;-63
2022/02/15 02:24:57;;;;;;;;;;;256.90;1536.00;;;;;;5094725;28;19908;-62
2022/02/15 02:27:27;;;;;;;;;;;281.60;1561.60;;;;;;5094699;28;19987;-61
2022/02/15 02:29:56;;;;;;;;;;;256.90;1536.00;;;;;;5094635;28;19904;-61
2022/02/15 02:32:25;;;;;;;;;;;256.80;1561.60;;;;;;5094187;28;20263;-62
2022/02/15 02:34:54;;;;;;;;;;;256.70;1561.60;;;;;;5094222;28;19939;-62
2022/02/15 02:37:23;;;;;;;;;;;256.80;1561.60;;;;;;5094607;28;20243;-62
2022/02/15 02:39:51;;;;;;;;;;;256.60;1561.60;;;;;;5094040;28;20266;-62
2022/02/15 02:42:17;;;;;;;;;;;256.70;1561.60;;;;;;5094412;28;19912;-61
2022/02/15 02:44:46;;;;;;;;;;;256.60;1561.60;;;;;;5094441;28;20350;-62
2022/02/15 02:47:15;;;;;;;;;;;256.60;1561.60;;;;;;5094528;28;19904;-62
2022/02/15 02:49:43;;;;;;;;;;;256.70;1536.00;;;;;;5094223;28;20040;-62
2022/02/15 02:52:12;;;;;;;;;;;256.60;1536.00;;;;;;5094192;28;19919;-61
2022/02/15 02:54:41;;;;;;;;;;;256.60;1561.60;;;;;;5094259;28;20387;-62
2022/02/15 02:57:12;;;;;;;;;;;256.70;1536.00;;;;;;5094202;28;19904;-68
2022/02/15 02:59:46;;;;;;;;;;;256.70;1536.00;;;;;;5094239;28;19990;-62
2022/02/15 03:02:15;;;;;;;;;;;256.70;1536.00;;;;;;5093937;28;19983;-62
2022/02/15 03:04:44;;;;;;;;;;;256.70;1536.00;;;;;;5075762;28;20254;-61
2022/02/15 03:07:13;;;;;;;;;;;256.60;1536.00;;;;;;5094053;28;20287;-61
2022/02/15 03:09:39;;;;;;;;;;;256.70;1536.00;;;;;;5093794;28;19904;-70
2022/02/15 03:12:07;;;;;;;;;;;256.60;1536.00;;;;;;5098285;28;19916;-69
2022/02/15 03:14:35;;;;;;;;;;;256.50;1561.60;;;;;;5098508;28;20414;-62
2022/02/15 03:17:01;;;;;;;;;;;256.50;1536.00;;;;;;5098237;28;19904;-61
2022/02/15 03:19:30;;;;;;;;;;;256.40;1536.00;;;;;;5098210;28;20411;-61
2022/02/15 03:21:59;;;;;;;;;;;256.40;1561.60;;;;;;5098288;28;19911;-61
2022/02/15 03:24:25;;;;;;;;;;;256.50;1536.00;;;;;;5098015;28;20015;-61
2022/02/15 03:26:53;;;;;;;;;;;256.40;1536.00;;;;;;5098009;28;19908;-62
2022/02/15 03:29:22;;;;;;;;;;;256.40;1561.60;;;;;;5098057;28;19904;-65
2022/02/15 03:31:51;;;;;;;;;;;256.40;1536.00;;;;;;5097863;28;20285;-61
2022/02/15 03:34:19;;;;;;;;;;;256.30;1561.60;;;;;;5097748;28;19958;-61
2022/02/15 03:36:48;;;;;;;;;;;256.40;1536.00;;;;;;5097918;28;20317;-61
2022/02/15 03:39:17;;;;;;;;;;;256.40;1536.00;;;;;;5097935;28;19951;-70
2022/02/15 03:44:27;;;;;;;;;;;256.40;1536.00;;;;;;5097948;28;19956;-70
2022/02/15 03:46:55;;;;;;;;;;;256.30;1536.00;;;;;;5097575;28;19904;-62
2022/02/15 03:49:24;;;;;;;;;;;256.40;1536.00;;;;;;5097587;28;19904;-70
2022/02/15 03:51:49;;;;;;;;;;;256.40;1536.00;;;;;;5097334;28;19964;-61
2022/02/15 03:54:18;;;;;;;;;;;256.40;1536.00;;;;;;5097533;28;19999;-62
2022/02/15 03:56:46;;;;;;;;;;;256.40;1536.00;;;;;;5097246;28;19904;-61
2022/02/15 03:59:15;;;;;;;;;;;256.30;1536.00;;;;;;5097251;28;19904;-62
2022/02/15 04:01:44;;;;;;;;;;;256.30;1536.00;;;;;;5097149;28;19911;-62
2022/02/15 04:04:12;;;;;;;;;;;256.40;1536.00;;;;;;5097249;28;19904;-69
2022/02/15 04:06:41;;;;;;;;;;;256.30;1536.00;;;;;;5097310;28;19904;-61
2022/02/15 04:09:10;;;;;;;;;;;256.30;1536.00;;;;;;5097284;28;20338;-61
2022/02/15 04:11:38;;;;;;;;;;;256.40;1536.00;;;;;;5096908;28;20464;-61
2022/02/15 04:14:07;;;;;;;;;;;256.30;1536.00;;;;;;5097353;28;19908;-67
2022/02/15 04:16:37;;;;;;;;;;;256.40;1536.00;;;;;;5097059;28;19910;-70
2022/02/15 04:19:02;;;;;;;;;;;256.40;1510.40;;;;;;5097089;28;19907;-65
2022/02/15 04:21:31;;;;;;;;;;;256.30;1536.00;;;;;;5096677;28;20316;-61
2022/02/15 04:24:00;;;;;;;;;;;256.30;1536.00;;;;;;5096782;28;19904;-62
2022/02/15 04:26:25;;;;;;;;;;;256.30;1536.00;;;;;;5096957;28;19998;-61
2022/02/15 04:28:54;;;;;;;;;;;256.30;1536.00;;;;;;5096960;28;19947;-61
2022/02/15 04:31:22;;;;;;;;;;;256.40;1536.00;;;;;;5096637;28;20353;-74
2022/02/15 04:33:48;;;;;;;;;;;256.40;1536.00;;;;;;5096645;28;19957;-62
2022/02/15 04:36:13;;;;;;;;;;;256.40;1587.20;;;;;;5096506;28;19908;-62
2022/02/15 04:38:42;;;;;;;;;;;256.50;1536.00;;;;;;5098348;28;19910;-68
2022/02/15 04:41:07;;;;;;;;;;;256.50;1536.00;;;;;;5116853;28;19969;-63
2022/02/15 04:43:36;;;;;;;;;;;256.50;1536.00;;;;;;5116961;28;20000;-62
2022/02/15 04:46:05;;;;;;;;;;;256.40;1536.00;;;;;;5116953;28;19949;-68
2022/02/15 04:48:30;;;;;;;;;;;256.40;1561.60;;;;;;5116926;28;19911;-68
2022/02/15 04:50:59;;;;;;;;;;;256.40;1561.60;;;;;;5116872;28;19903;-61
2022/02/15 04:53:24;;;;;;;;;;;256.40;1536.00;;;;;;5117381;28;19908;-62
2022/02/15 04:55:53;;;;;;;;;;;256.40;1561.60;;;;;;5116653;28;19927;-68
2022/02/15 04:58:22;;;;;;;;;;;256.50;1536.00;;;;;;5116675;28;19911;-62
2022/02/15 05:00:50;;;;;;;;;;;256.50;1536.00;;;;;;5116464;28;19903;-63
2022/02/15 05:03:19;;;;;;;;;;;256.50;1536.00;;;;;;5116375;28;19903;-62
2022/02/15 05:05:47;;;;;;;;;;;256.50;1536.00;;;;;;5116332;28;20301;-64
2022/02/15 05:08:16;;;;;;;;;;;256.60;1536.00;;;;;;5116517;28;20254;-62
2022/02/15 05:10:45;;;;;;;;;;;256.50;1561.60;;;;;;5116329;28;19957;-62
2022/02/15 05:13:13;;;;;;;;;;;256.60;1561.60;;;;;;5116347;28;19912;-64
2022/02/15 05:15:43;;;;;;;;;;;256.60;1536.00;;;;;;5116184;28;20318;-63
2022/02/15 05:18:09;;;;;;;;;;;256.60;1536.00;;;;;;5116186;28;19950;-63
2022/02/15 05:20:37;;;;;;;;;;;256.60;1536.00;;;;;;5116044;28;19910;-63
2022/02/15 05:23:06;;;;;;;;;;;256.70;1536.00;;;;;;5115871;28;19999;-62
2022/02/15 05:25:32;;;;;;;;;;;256.60;1561.60;;;;;;5116258;28;19903;-67
2022/02/15 05:28:01;;;;;;;;;;;256.70;1536.00;;;;;;5116100;28;19998;-62
2022/02/15 05:30:30;;;;;;;;;;;256.80;1536.00;;;;;;5116045;28;19903;-63
2022/02/15 05:32:58;;;;;;;;;;;256.70;1536.00;;;;;;5115463;28;19922;-62
2022/02/15 05:35:27;;;;;;;;;;;256.70;1536.00;;;;;;5114776;28;20440;-62
2022/02/15 05:37:56;;;;;;;;;;;256.70;1536.00;;;;;;5115687;28;19908;-68
2022/02/15 05:40:25;;;;;;;;;;;256.70;1536.00;;;;;;5115904;28;19911;-62
2022/02/15 05:42:50;;;;;;;;;;;256.60;1561.60;;;;;;5115718;28;19903;-62
2022/02/15 05:45:19;;;;;;;;;;;256.70;1536.00;;;;;;5097325;28;19903;-62
2022/02/15 05:47:48;;;;;;;;;;;256.60;1536.00;;;;;;5096921;28;19943;-62
2022/02/15 05:53:03;;;;;;;;;;;256.60;1536.00;;;;;;5115674;28;19919;-68
2022/02/15 05:55:32;;;;;;;;;;;256.60;1536.00;;;;;;5115335;28;19903;-63
2022/02/15 05:58:00;;;;;;;;;;;256.60;1536.00;;;;;;5115392;28;19903;-62
2022/02/15 06:00:29;;;;;;;;;;;256.60;1536.00;;;;;;5115355;28;19904;-63
2022/02/15 06:02:54;;;;;;;;;;;256.70;1536.00;;;;;;5115356;28;19943;-63
2022/02/15 06:05:22;;;;;;;;;;;256.60;1536.00;;;;;;5115381;28;20384;-62
2022/02/15 06:07:51;;;;;;;;;;;256.60;1536.00;;;;;;5115290;28;20268;-63
2022/02/15 06:10:20;;;;;;;;;;;256.50;1536.00;;;;;;5115187;28;19904;-62
2022/02/15 06:12:48;;;;;;;;;;;256.50;1561.60;;;;;;5115142;28;19970;-62
2022/02/15 06:15:16;;;;;;;;;;;256.60;1536.00;;;;;;5115023;28;19914;-62
2022/02/15 06:17:45;;;;;;;;;;;256.60;1536.00;;;;;;5115673;28;19912;-62
2022/02/15 06:20:13;;;;;;;;;;;256.60;1536.00;;;;;;5115196;28;20234;-62
2022/02/15 06:22:42;;;;;;;;;;;256.70;1536.00;;;;;;5115159;28;19910;-63
2022/02/15 06:25:11;;;;;;;;;;;256.60;1536.00;;;;;;5114745;28;19971;-68
2022/02/15 06:27:36;;;;;;;;;;;256.60;1536.00;;;;;;5114885;28;19904;-62
2022/02/15 06:30:05;;;;;;;;;;;256.70;1536.00;;;;;;5114697;28;20369;-68
2022/02/15 06:32:33;;;;;;;;;;;256.60;1536.00;;;;;;5114393;28;19927;-62
2022/02/15 06:34:59;;;;;;;;;;;256.60;1536.00;;;;;;5114841;28;19948;-62
2022/02/15 06:37:27;;;;;;;;;;;256.70;1510.40;;;;;;5114788;28;19990;-63
2022/02/15 06:39:56;;;;;;;;;;;256.60;1536.00;;;;;;5114831;28;20346;-62
2022/02/15 06:42:24;;;;;;;;;;;256.60;1536.00;;;;;;5114537;28;19904;-62
2022/02/15 06:44:53;;;;;;;;;;;256.70;1536.00;;;;;;5114387;28;19910;-68
2022/02/15 06:47:21;;;;;;;;;;;256.70;1510.40;;;;;;5114699;28;20008;-68
2022/02/15 06:49:50;;;;;;;;;;;256.70;1536.00;;;;;;5114647;28;19904;-63
2022/02/15 06:52:18;;;;;;;;;;;256.70;1510.40;;;;;;5115107;28;19912;-62
2022/02/15 06:54:47;;;;;;;;;;;256.60;1536.00;;;;;;5114489;28;19908;-62
2022/02/15 06:57:16;;;;;;;;;;;256.60;1536.00;;;;;;5114765;28;20311;-66
2022/02/15 06:59:42;;;;;;;;;;;281.60;1664.00;;;;;;5114730;28;19903;-65
2022/02/15 07:02:10;;;;;;;;;;;282.00;1689.60;;;;;;5114480;28;19904;-64
2022/02/15 07:04:39;;;;;;;;;;;281.90;1536.00;;;;;;5114443;28;20014;-66
2022/02/15 07:07:08;;;;;;;;;;;281.80;1536.00;;;;;;5114803;28;19904;-67
2022/02/15 07:09:36;;;;;;;;;;;281.60;1536.00;;;;;;5114368;28;19904;-65
2022/02/15 07:12:06;;;;;;;;;;;256.90;1510.40;;;;;;5114638;28;19918;-66
2022/02/15 07:14:35;;;;;;;;;;;256.80;1510.40;;;;;;5114462;28;19904;-66
2022/02/15 07:17:01;;;;;;;;;;;256.80;1536.00;;;;;;5114368;28;19903;-66
2022/02/15 07:19:32;;;;;;;;;;;256.70;1536.00;;;;;;5114081;28;19965;-66
2022/02/15 07:22:01;;;;;;;;;;;256.60;1536.00;;;;;;5114096;28;19926;-66
2022/02/15 07:24:30;;;;;;;;;;;256.60;1536.00;;;;;;5114254;28;19903;-68
2022/02/15 07:26:58;;;;;;;;;;;256.60;1510.40;;;;;;5095375;28;20353;-67
2022/02/15 07:29:27;;;;;;;;;;;256.50;1536.00;;;;;;5114305;28;19908;-68
2022/02/15 07:31:55;;;;;;;;;;;256.50;1536.00;;;;;;5113985;28;19920;-67
2022/02/15 07:34:23;;;;;;;;;;;256.50;1536.00;;;;;;5114079;28;20357;-68
2022/02/15 07:36:52;;;;;;;;;;;256.40;1536.00;;;;;;5114829;28;19911;-66
2022/02/15 07:39:20;;;;;;;;;;;256.40;1536.00;;;;;;5114081;28;19904;-66
2022/02/15 07:41:49;;;;;;;;;;;256.50;1561.60;;;;;;5114191;28;19957;-66
2022/02/15 07:44:18;;;;;;;;;;;256.40;1536.00;;;;;;5114001;28;19904;-68
2022/02/15 07:46:47;;;;;;;;;;;256.40;1561.60;;;;;;5113980;28;19911;-68
2022/02/15 07:49:15;;;;;;;;;;;256.40;1561.60;;;;;;5113783;28;19949;-64
2022/02/15 07:51:44;;;;;;;;;;;256.50;1587.20;;;;;;5113955;28;19912;-64
2022/02/15 07:54:13;;;;;;;;;;;256.60;1587.20;;;;;;5114077;28;19910;-68
2022/02/15 07:56:42;;;;;;;;;;;256.70;1561.60;;;;;;5095771;28;19903;-64
2022/02/15 07:59:07;;;;;;;;;;;256.80;1561.60;;;;;;5117545;28;20288;-65
2022/02/15 08:01:36;;;;;;;;;;;256.90;1561.60;;;;;;5117861;28;19911;-64
2022/02/15 08:04:04;;;;;;;;;;;281.60;1587.20;;;;;;5117622;28;19950;-65
2022/02/15 08:06:30;;;;;;;;;;;281.70;1587.20;;;;;;5117602;28;19957;-64
2022/02/15 08:08:59;;;;;;;;;;;281.70;1587.20;;;;;;5117578;28;19907;-64
2022/02/15 08:11:27;;;;;;;;;;;281.80;1587.20;;;;;;5117473;28;19965;-65
2022/02/15 08:13:54;;;;;;;;;;;281.80;1561.60;;;;;;5117589;28;20316;-65
2022/02/15 08:16:22;;;;;;;;;;;281.90;1561.60;;;;;;5117487;28;19911;-65
2022/02/15 08:18:51;;;;;;;;;;;281.90;1561.60;;;;;;5117359;28;20277;-65
2022/02/15 08:21:17;;;;;;;;;;;282.00;1587.20;;;;;;5117171;28;20353;-65
2022/02/15 08:23:46;;;;;;;;;;;282.10;1587.20;;;;;;5117312;28;19915;-64
2022/02/15 08:26:14;;;;;;;;;;;282.20;1587.20;;;;;;5117363;28;19904;-64
2022/02/15 08:28:44;;;;;;;;;;;282.30;1587.20;;;;;;5117295;28;20312;-64
2022/02/15 08:31:12;;;;;;;;;;;282.40;1587.20;;;;;;5117044;28;19910;-65
2022/02/15 08:33:41;;;;;;;;;;;282.50;1561.60;;;;;;5117126;28;19908;-65
2022/02/15 08:36:08;;;;;;;;;;;307.20;1561.60;;;;;;5117087;28;19903;-64
2022/02/15 08:38:36;;;;;;;;;;;307.20;1561.60;;;;;;5116913;28;20368;-64
2022/02/15 08:41:05;;;;;;;;;;;307.30;1561.60;;;;;;5116906;28;19933;-64
2022/02/15 08:43:31;;;;;;;;;;;307.30;1536.00;;;;;;5116979;28;19903;-69
2022/02/15 08:45:59;;;;;;;;;;;307.40;1561.60;;;;;;5116944;28;19910;-64
2022/02/15 08:48:27;;;;;;;;;;;307.40;1536.00;;;;;;5117033;28;19908;-64
2022/02/15 08:50:56;;;;;;;;;;;307.50;1536.00;;;;;;5116672;28;19986;-64
2022/02/15 08:53:25;;;;;;;;;;;307.60;1536.00;;;;;;5116632;28;20388;-64
2022/02/15 08:55:54;;;;;;;;;;;307.70;1536.00;;;;;;5116878;28;19903;-64
2022/02/15 08:58:23;;;;;;;;;;;307.80;1536.00;;;;;;5116761;28;20005;-64
2022/02/15 09:00:51;;;;;;;;;;;307.90;1536.00;;;;;;5116686;28;19903;-64
2022/02/15 09:03:19;;;;;;;;;;;308.00;1536.00;;;;;;5116602;28;19973;-67
2022/02/15 09:05:48;;;;;;;;;;;332.80;1561.60;;;;;;5116550;28;19957;-65
2022/02/15 09:08:16;;;;;;;;;;;332.90;1536.00;;;;;;5116277;28;19904;-64
2022/02/15 09:10:45;;;;;;;;;;;333.00;1561.60;;;;;;5116537;28;19904;-68
2022/02/15 09:13:13;;;;;;;;;;;333.10;1536.00;;;;;;5116323;28;20318;-64
2022/02/15 09:15:42;;;;;;;;;;;333.20;1536.00;;;;;;5116450;28;20265;-64
2022/02/15 09:18:11;;;;;;;;;;;333.30;1536.00;;;;;;5116328;28;20329;-66
2022/02/15 09:20:41;;;;;;;;;;;333.40;1510.40;;;;;;5116069;28;19904;-69
2022/02/15 09:23:09;;;;;;;;;;;333.50;1510.40;;;;;;5116010;28;20341;-69
2022/02/15 09:25:35;;;;;;;;;;;333.60;1484.80;;;;;;5116084;28;19915;-64
2022/02/15 09:28:03;;;;;;;;;;;333.70;1459.20;;;;;;5116102;28;19904;-64
2022/02/15 09:30:32;;;;;;;;;;;358.40;1484.80;;;;;;5116057;28;19903;-64
2022/02/15 09:33:01;;;;;;;;;;;358.50;1484.80;;;;;;5115650;28;19968;-64
2022/02/15 09:35:32;;;;;;;;;;;358.60;1484.80;;;;;;5115977;28;19904;-64
2022/02/15 09:38:00;;;;;;;;;;;358.70;1484.80;;;;;;5116123;28;19923;-64
2022/02/15 09:40:29;;;;;;;;;;;358.80;1459.20;;;;;;5116015;28;20324;-63
2022/02/15 09:42:56;;;;;;;;;;;358.90;1433.60;;;;;;5115987;28;19907;-68
2022/02/15 09:45:27;;;;;;;;;;;359.00;1408.00;;;;;;5115698;28;19946;-64
2022/02/15 09:47:56;;;;;;;;;;;359.10;1382.40;;;;;;5116194;28;19965;-64
2022/02/15 09:50:25;;;;;;;;;;;359.20;1408.00;;;;;;5115793;28;19956;-69
2022/02/15 09:52:54;;;;;;;;;;;359.30;1382.40;;;;;;5115846;28;19911;-64
2022/02/15 09:55:26;;;;;;;;;;;384.00;1382.40;;;;;;5115095;28;19904;-67
2022/02/15 09:57:54;;;;;;;;;;;384.00;1382.40;;;;;;5115622;28;19926;-63
2022/02/15 10:00:23;;;;;;;;;;;384.20;1382.40;;;;;;5115897;28;20398;-64
2022/02/15 10:02:52;;;;;;;;;;;384.30;1356.80;;;;;;5115427;28;20370;-69
2022/02/15 10:05:21;;;;;;;;;;;384.40;1331.20;;;;;;5115291;28;19903;-69
2022/02/15 10:07:53;;;;;;;;;;;384.50;1305.60;;;;;;5115408;28;19910;-63
2022/02/15 10:10:26;;;;;;;;;;;384.60;1331.20;;;;;;5115468;28;19911;-64
2022/02/15 10:13:09;;;;;;;;;;;384.70;1331.20;;;;;;5115461;28;20277;-64
2022/02/15 10:15:39;;;;;;;;;;;384.80;1305.60;;;;;;5115117;28;19911;-64
2022/02/15 10:18:10;;;;;;;;;;;384.80;1280.00;;;;;;5115255;28;20281;-68
2022/02/15 10:20:46;;;;;;;;;;;409.60;1305.60;;;;;;5114621;28;20029;-63
2022/02/15 10:23:17;;;;;;;;;;;409.70;1305.60;;;;;;5114919;28;19927;-64
2022/02/15 10:25:47;;;;;;;;;;;409.80;1305.60;;;;;;5114813;28;19904;-64
2022/02/15 10:28:17;;;;;;;;;;;409.90;1280.00;;;;;;5115242;28;19903;-68
2022/02/15 10:30:53;;;;;;;;;;;410.00;1280.00;;;;;;5114602;28;19910;-67
2022/02/15 10:33:26;;;;;;;;;;;410.00;1280.00;;;;;;5114551;28;19927;-64
2022/02/15 10:35:56;;;;;;;;;;;410.00;1305.60;;;;;;5114745;28;20246;-64
2022/02/15 10:38:33;;;;;;;;;;;410.10;1280.00;;;;;;5114750;28;19904;-64
2022/02/15 10:41:08;;;;;;;;;;;410.20;1254.40;;;;;;5114703;28;20376;-65
2022/02/15 10:43:49;;;;;;;;;;;410.30;1280.00;;;;;;5114484;28;19908;-64
2022/02/15 10:46:18;;;;;;;;;;;410.30;1280.00;;;;;;5114634;28;19907;-68
2022/02/15 10:48:45;;;;;;;;;;;410.40;1254.40;;;;;;5113985;28;20326;-63
2022/02/15 10:51:13;;;;;;;;;;;410.40;1254.40;;;;;;5102596;28;20320;-69
2022/02/15 10:53:41;;;;;;;;;;;410.50;1228.80;;;;;;5104278;28;19915;-63
2022/02/15 10:56:08;;;;;;;;;;;435.20;1228.80;;;;;;5103127;28;19908;-63
2022/02/15 10:58:36;;;;;;;;;;;435.20;1228.80;;;;;;5101674;28;19914;-68
2022/02/15 11:01:07;;;;;;;;;;;435.30;1228.80;;;;;;5103203;28;19914;-68
2022/02/15 11:03:34;;;;;;;;;;;435.40;1203.20;;;;;;5103763;28;19908;-65
2022/02/15 11:06:01;;;;;;;;;;;435.50;1203.20;;;;;;5100713;28;19961;-67
2022/02/15 11:08:28;;;;;;;;;;;435.50;1203.20;;;;;;5102546;28;19904;-68
2022/02/15 11:11:06;;;;;;;;;;;435.60;1203.20;;;;;;5101447;28;20045;-68
2022/02/15 11:13:35;;;;;;;;;;;435.70;1177.60;;;;;;5090819;28;20257;-64
2022/02/15 11:16:11;;;;;;;;;;;435.70;1177.60;;;;;;5092831;28;19942;-64
2022/02/15 11:18:40;;;;;;;;;;;435.70;1177.60;;;;;;5092506;28;20004;-64
2022/02/15 11:21:07;;;;;;;;;;;435.70;1177.60;;;;;;5089854;28;19904;-69
2022/02/15 11:23:35;;;;;;;;;;;435.80;1152.00;;;;;;5092718;28;20350;-63
2022/02/15 11:26:11;;;;;;;;;;;435.80;1177.60;;;;;;5092317;28;19912;-65
2022/02/15 11:28:49;;;;;;;;;;;435.80;1152.00;;;;;;5092475;28;20353;-69
2022/02/15 11:31:25;;;;;;;;;;;435.80;1152.00;;;;;;5091058;28;19912;-64
2022/02/15 11:33:52;;;;;;;;;;;435.90;1152.00;;;;;;5076749;28;20322;-65
2022/02/15 11:36:19;;;;;;;;;;;435.90;1152.00;;;;;;5077610;28;19905;-62
2022/02/15 11:38:52;;;;;;;;;;;436.00;1152.00;;;;;;5085983;28;20002;-61
2022/02/15 11:41:19;;;;;;;;;;;436.00;1152.00;;;;;;5096131;28;20358;-61
2022/02/15 11:44:11;;;;;;;;;;;436.00;1177.60;;;;;;5096237;28;20371;-60
2022/02/15 11:46:46;;;;;;;;;;;436.00;1126.40;;;;;;5091331;28;19952;-59
2022/02/15 11:49:14;;;;;;;;;;;460.80;1152.00;;;;;;5095393;28;20018;-60
2022/02/15 11:51:40;;;;;;;;;;;460.80;1152.00;;;;;;5107426;28;19915;-60
2022/02/15 11:54:10;;;;;;;;;;;460.80;1126.40;;;;;;5105935;28;19911;-60
2022/02/15 11:56:38;;;;;;;;;;;460.80;1126.40;;;;;;5098917;28;19912;-63
2022/02/15 11:59:16;;;;;;;;;;;460.90;1126.40;;;;;;5098574;28;19912;-62
2022/02/15 12:01:43;;;;;;;;;;;460.90;1126.40;;;;;;5101789;28;20314;-62
2022/02/15 12:04:09;;;;;;;;;;;460.90;1152.00;;;;;;5103237;28;19908;-61
2022/02/15 12:06:36;;;;;;;;;;;460.90;1126.40;;;;;;5106553;28;19908;-59
2022/02/15 12:09:03;;;;;;;;;;;460.90;1126.40;;;;;;5107928;28;20373;-61
2022/02/15 12:11:39;;;;;;;;;;;460.90;1126.40;;;;;;5108936;28;19907;-61
2022/02/15 12:14:27;;;;;;;;;;;461.00;1126.40;;;;;;5099989;28;19912;-63
2022/02/15 12:16:57;;;;;;;;;;;461.00;1126.40;;;;;;5107401;28;19952;-62
2022/02/15 12:19:33;;;;;;;;;;;461.00;1100.80;;;;;;5103780;28;19998;-60
2022/02/15 12:21:59;;;;;;;;;;;461.00;1126.40;;;;;;5111541;28;19942;-62
2022/02/15 12:24:28;;;;;;;;;;;461.10;1126.40;;;;;;5117526;28;20280;-62
2022/02/15 12:26:54;;;;;;;;;;;461.10;1100.80;;;;;;5117412;28;19904;-63
2022/02/15 12:29:21;;;;;;;;;;;461.10;1075.20;;;;;;5114543;28;19908;-63
2022/02/15 12:31:53;;;;;;;;;;;461.10;1100.80;;;;;;5106238;28;19919;-64
2022/02/15 12:34:20;;;;;;;;;;;461.10;1075.20;;;;;;5102833;28;20353;-63
2022/02/15 12:36:47;;;;;;;;;;;461.20;1100.80;;;;;;5103785;28;19904;-64
2022/02/15 12:39:14;;;;;;;;;;;461.10;1100.80;;;;;;5098560;28;19968;-62
2022/02/15 12:41:45;;;;;;;;;;;461.20;1075.20;;;;;;5102026;28;19904;-59
2022/02/15 12:44:11;;;;;;;;;;;461.20;1075.20;;;;;;5107455;28;19930;-61
2022/02/15 12:46:37;;;;;;;;;;;461.20;1075.20;;;;;;5106160;28;20362;-61
2022/02/15 12:49:04;;;;;;;;;;;461.20;1075.20;;;;;;5102795;28;19931;-61
2022/02/15 12:51:33;;;;;;;;;;;461.20;1075.20;;;;;;5105246;28;19904;-59
2022/02/15 12:53:59;;;;;;;;;;;461.20;1075.20;;;;;;5105121;28;19907;-63
2022/02/15 12:56:26;;;;;;;;;;;461.20;1075.20;;;;;;5104663;28;19908;-61
2022/02/15 12:58:54;;;;;;;;;;;461.20;1049.60;;;;;;5106291;28;19994;-61
2022/02/15 13:01:19;;;;;;;;;;;461.20;1075.20;;;;;;5101559;28;19904;-59
2022/02/15 13:03:53;;;;;;;;;;;461.30;1049.60;;;;;;5096295;28;19986;-59
2022/02/15 13:06:22;;;;;;;;;;;461.30;1049.60;;;;;;5112547;28;20273;-62
2022/02/15 13:08:50;;;;;;;;;;;461.30;1024.00;;;;;;5099540;28;19908;-61
2022/02/15 13:11:16;;;;;;;;;;;461.30;1024.00;;;;;;5098323;28;19981;-62
2022/02/15 13:13:42;;;;;;;;;;;461.30;1024.00;;;;;;5098349;28;19919;-61
2022/02/15 13:16:08;;;;;;;;;;;461.30;1024.00;;;;;;5106190;28;19926;-62
2022/02/15 13:18:44;;;;;;;;;;;461.30;1024.00;;;;;;5107627;28;20342;-59
2022/02/15 13:21:36;;;;;;;;;;;461.30;1024.00;;;;;;5105835;28;19938;-59
2022/02/15 13:24:08;;;;;;;;;;;461.30;1024.00;;;;;;5013408;28;19932;-59
2022/02/15 13:26:35;;;;;;;;;;;461.30;1024.00;;;;;;5018289;28;19921;-60
2022/02/15 13:29:05;;;;;;;;;;;461.30;1024.00;;;;;;5013568;28;19905;-61
2022/02/15 13:31:40;;;;;;;;;;;461.30;1024.00;;;;;;5014788;28;20219;-60
2022/02/15 13:34:06;;;;;;;;;;;461.30;1024.00;;;;;;5022950;28;19915;-59
2022/02/15 13:36:33;;;;;;;;;;;461.30;1024.00;;;;;;5032186;28;19912;-61
2022/02/15 13:39:01;;;;;;;;;;;461.30;1024.00;;;;;;5033088;28;19905;-61
2022/02/15 13:41:30;;;;;;;;;;;461.30;1049.60;;;;;;5032677;28;19909;-63
2022/02/15 13:44:02;;;;;;;;;;;461.30;1049.60;;;;;;5033489;28;19905;-62
2022/02/15 13:46:38;;;;;;;;;;;461.30;1024.00;;;;;;5033025;28;19908;-63
2022/02/15 13:49:06;;;;;;;;;;;461.30;1024.00;;;;;;5032869;28;19915;-63
2022/02/15 13:51:35;;;;;;;;;;;461.30;1024.00;;;;;;5032883;28;19911;-62
2022/02/15 13:54:07;;;;;;;;;;;461.30;1024.00;;;;;;5032710;28;19944;-62
2022/02/15 13:56:37;;;;;;;;;;;461.20;1024.00;;;;;;5032248;28;19911;-62
2022/02/15 13:59:07;;;;;;;;;;;461.20;1024.00;;;;;;5032906;28;20000;-62